Terminal Aerodrome Forecast
Issued by NWS Atlanta, GA

Home | Current Version | Previous Version | Text Only | Print | Product List | Glossary On
Versions: 1 2 3 4 5 6 7 8 9 10 11 12 13 14 15 16 17 18 19 20 21 22 23 24 25 26 27 28 29 30 31 32 33 34 35 36 37 38 39
000
FTUS42 KFFC 291131
TAFATL
TAF
KATL 291131Z 2912/3018 34006KT P6SM SKC
     FM291400 10006KT P6SM SKC
     FM291700 15007KT P6SM SKC
     FM292000 19007KT P6SM SCT050
     FM300300 17007KT P6SM BKN035
     FM301100 22010KT P6SM OVC012
     FM301300 23009KT P6SM VCSH SCT008 BKN012=

USA.gov is the U.S. government's official web portal to all federal, state and local government web resources and services.